createdAt,value
2017-12-27T00:00:49.713Z,99.99
2017-12-27T00:01:48.998Z,99.99
2017-12-27T00:02:49.284Z,99.99
2017-12-27T00:03:49.318Z,99.99
2017-12-27T00:04:49.485Z,99.99
2017-12-27T00:05:49.642Z,99.99
2017-12-27T00:06:49.388Z,99.99
2017-12-27T00:07:49.904Z,99.99
2017-12-27T00:08:50.273Z,99.99
2017-12-27T00:09:50.322Z,99.99
2017-12-27T00:10:50.034Z,99.99
2017-12-27T00:11:50.672Z,99.99
2017-12-27T00:12:50.665Z,99.99
2017-12-27T00:13:51.223Z,99.99
2017-12-27T00:14:51.200Z,99.99
2017-12-27T00:15:51.171Z,99.99
2017-12-27T00:16:50.931Z,99.99
2017-12-27T00:17:51.055Z,99.99
2017-12-27T00:18:51.466Z,99.99
2017-12-27T00:19:51.488Z,99.99
2017-12-27T00:20:51.331Z,99.99
2017-12-27T00:21:51.530Z,99.99
2017-12-27T00:22:51.700Z,99.99
2017-12-27T00:23:52.095Z,99.99
2017-12-27T00:24:52.054Z,99.99
2017-12-27T00:25:52.317Z,99.99
2017-12-27T00:26:52.722Z,99.99
2017-12-27T00:27:52.732Z,99.99
2017-12-27T00:28:52.873Z,99.99
2017-12-27T00:29:52.895Z,99.99
2017-12-27T00:30:52.645Z,99.99
2017-12-27T00:31:52.928Z,99.99
2017-12-27T00:32:53.078Z,99.99
2017-12-27T00:33:53.338Z,99.99
2017-12-27T00:34:53.382Z,99.99
2017-12-27T00:35:53.767Z,99.99
2017-12-27T00:36:53.530Z,99.99
2017-12-27T00:37:53.525Z,99.99
2017-12-27T00:38:53.572Z,99.99
2017-12-27T00:39:54.027Z,99.99
2017-12-27T00:40:54.142Z,99.99
2017-12-27T00:41:54.070Z,99.99
2017-12-27T00:42:54.190Z,99.99
2017-12-27T00:43:54.212Z,99.99
2017-12-27T00:44:54.390Z,99.99
2017-12-27T00:45:54.836Z,99.99
2017-12-27T00:46:55.037Z,99.99
2017-12-27T00:47:54.940Z,99.99
2017-12-27T00:48:54.670Z,99.99
2017-12-27T00:49:55.505Z,99.99
2017-12-27T00:50:55.282Z,99.99
2017-12-27T00:51:55.310Z,99.99
2017-12-27T00:52:55.450Z,99.99
2017-12-27T00:53:55.645Z,99.99
2017-12-27T00:54:55.748Z,99.99
2017-12-27T00:55:55.647Z,99.99
2017-12-27T00:56:55.683Z,99.99
2017-12-27T00:57:55.886Z,99.99
2017-12-27T00:58:55.876Z,99.99
2017-12-27T00:59:55.916Z,99.99
2017-12-27T01:00:55.919Z,99.99
2017-12-27T01:01:56.734Z,99.99
2017-12-27T01:02:56.493Z,99.99
2017-12-27T01:03:56.512Z,99.99
2017-12-27T01:04:56.244Z,99.99
2017-12-27T01:05:56.291Z,99.99
2017-12-27T01:06:56.617Z,99.99
2017-12-27T01:07:56.622Z,99.99
2017-12-27T01:08:56.626Z,99.99
2017-12-27T01:09:56.843Z,99.99
2017-12-27T01:10:56.759Z,99.99
2017-12-27T01:11:57.019Z,99.99
2017-12-27T01:12:57.465Z,99.99
2017-12-27T01:13:57.423Z,99.99
2017-12-27T01:14:57.335Z,99.99
2017-12-27T01:15:57.388Z,99.99
2017-12-27T01:16:57.463Z,99.99
2017-12-27T01:17:57.610Z,99.99
2017-12-27T01:18:58.262Z,99.99
2017-12-27T01:19:58.383Z,99.99
2017-12-27T01:20:58.390Z,99.99
2017-12-27T01:21:58.738Z,99.99
2017-12-27T01:22:58.566Z,99.99
2017-12-27T01:23:59.147Z,99.99
2017-12-27T01:24:59.343Z,99.99
2017-12-27T01:25:59.482Z,99.99
2017-12-27T01:26:59.556Z,99.99
2017-12-27T01:27:59.338Z,99.99
2017-12-27T01:28:59.748Z,99.99
2017-12-27T01:29:59.926Z,99.99
2017-12-27T01:31:00.231Z,99.99
2017-12-27T01:31:59.980Z,99.99
2017-12-27T01:33:00.448Z,99.99
2017-12-27T01:34:00.242Z,99.99
2017-12-27T01:35:00.584Z,99.99
2017-12-27T01:36:00.864Z,99.99
2017-12-27T01:37:00.534Z,99.99
2017-12-27T01:38:01.117Z,99.99
2017-12-27T01:39:00.639Z,99.99
2017-12-27T01:40:01.044Z,99.99
2017-12-27T01:41:01.045Z,99.99
2017-12-27T01:42:00.994Z,99.99
2017-12-27T01:43:01.481Z,99.99
2017-12-27T01:44:01.913Z,99.99
2017-12-27T01:45:01.929Z,99.99
2017-12-27T01:46:02.061Z,99.99
2017-12-27T01:47:02.482Z,99.99
2017-12-27T01:48:02.759Z,99.99
2017-12-27T01:49:02.687Z,99.99
2017-12-27T01:50:02.717Z,99.99
2017-12-27T01:51:02.736Z,99.99
2017-12-27T01:52:02.855Z,99.99
2017-12-27T01:53:03.100Z,99.99
2017-12-27T01:54:03.342Z,99.99
2017-12-27T01:55:03.523Z,99.99
2017-12-27T01:56:04.093Z,99.99
2017-12-27T01:57:04.268Z,99.99
2017-12-27T01:58:04.143Z,99.99
2017-12-27T01:59:04.113Z,99.99
2017-12-27T02:00:04.655Z,99.99
2017-12-27T02:01:04.600Z,99.99
2017-12-27T02:02:04.992Z,99.99
2017-12-27T02:03:04.976Z,99.99
2017-12-27T02:04:05.152Z,99.99
2017-12-27T02:05:05.355Z,99.99
2017-12-27T02:06:05.377Z,99.99
2017-12-27T02:07:05.913Z,99.99
2017-12-27T02:08:06.117Z,99.99
2017-12-27T02:09:06.071Z,99.99
2017-12-27T02:10:06.240Z,99.99
2017-12-27T02:11:06.315Z,99.99
2017-12-27T02:12:06.797Z,99.99
2017-12-27T02:13:06.579Z,99.99
2017-12-27T02:14:06.599Z,99.99
2017-12-27T02:15:06.651Z,99.99
2017-12-27T02:16:06.781Z,99.99
2017-12-27T02:17:07.185Z,99.99
2017-12-27T02:18:07.488Z,99.99
2017-12-27T02:19:07.751Z,99.99
2017-12-27T02:20:07.768Z,99.99
2017-12-27T02:21:07.740Z,99.99
2017-12-27T02:22:08.382Z,99.99
2017-12-27T02:23:07.764Z,99.99
2017-12-27T02:24:07.586Z,99.99
2017-12-27T02:25:07.795Z,99.99
2017-12-27T02:26:07.834Z,99.99
2017-12-27T02:27:08.021Z,99.99
2017-12-27T02:28:08.101Z,99.99
2017-12-27T02:29:08.710Z,99.99
2017-12-27T02:30:08.344Z,99.99
2017-12-27T02:31:08.813Z,99.99
2017-12-27T02:32:08.599Z,99.99
2017-12-27T02:33:08.858Z,99.99
2017-12-27T02:34:09.336Z,99.99
2017-12-27T02:35:09.292Z,99.99
2017-12-27T02:36:08.963Z,99.99
2017-12-27T02:38:19.279Z,99.99
2017-12-27T02:39:19.168Z,99.99
2017-12-27T02:40:19.507Z,99.99
2017-12-27T02:41:19.257Z,99.99
2017-12-27T02:42:20.201Z,99.99
2017-12-27T02:43:19.573Z,99.99
2017-12-27T02:44:19.999Z,99.99
2017-12-27T02:45:20.032Z,99.99
2017-12-27T02:46:20.176Z,99.99
2017-12-27T02:47:20.479Z,99.99
2017-12-27T02:48:20.920Z,99.99
2017-12-27T02:49:21.102Z,99.99
2017-12-27T02:50:21.575Z,99.99
2017-12-27T02:51:22.011Z,99.99
2017-12-27T02:52:22.027Z,99.99
2017-12-27T02:53:21.780Z,99.99
2017-12-27T02:54:22.212Z,99.99
2017-12-27T02:55:22.393Z,99.99
2017-12-27T02:56:22.149Z,99.99
2017-12-27T02:57:22.470Z,99.99
2017-12-27T02:58:22.467Z,99.99
2017-12-27T02:59:22.875Z,99.99
2017-12-27T03:00:23.054Z,99.99
2017-12-27T03:01:23.537Z,99.99
2017-12-27T03:02:23.525Z,99.99
2017-12-27T03:03:23.970Z,99.99
2017-12-27T03:04:24.182Z,99.99
2017-12-27T03:05:24.479Z,99.99
2017-12-27T03:06:24.208Z,99.99
2017-12-27T03:07:24.343Z,99.99
2017-12-27T03:08:24.371Z,99.99
2017-12-27T03:09:25.085Z,99.99
2017-12-27T03:10:25.277Z,99.99
2017-12-27T03:11:25.290Z,99.99
2017-12-27T03:12:25.516Z,99.99
2017-12-27T03:13:25.690Z,99.99
2017-12-27T03:14:25.718Z,99.99
2017-12-27T03:15:25.747Z,99.99
2017-12-27T03:16:25.776Z,99.99
2017-12-27T03:17:25.519Z,99.99
2017-12-27T03:18:25.961Z,99.99
2017-12-27T03:19:25.979Z,99.99
2017-12-27T03:20:26.005Z,99.99
2017-12-27T03:21:26.439Z,99.99
2017-12-27T03:22:26.490Z,99.99
2017-12-27T03:23:26.480Z,99.99
2017-12-27T03:24:26.509Z,99.99
2017-12-27T03:25:26.529Z,99.99
2017-12-27T03:26:26.465Z,99.99
2017-12-27T03:27:26.761Z,99.99
2017-12-27T03:28:26.782Z,99.99
2017-12-27T03:29:26.822Z,99.99
2017-12-27T03:30:27.099Z,99.99
2017-12-27T03:31:27.108Z,99.99
2017-12-27T03:32:27.594Z,99.99
2017-12-27T03:33:27.351Z,99.99
2017-12-27T03:34:27.800Z,99.99
2017-12-27T03:35:27.992Z,99.99
2017-12-27T03:36:28.011Z,99.99
2017-12-27T03:37:27.987Z,99.99
2017-12-27T03:38:28.281Z,99.99
2017-12-27T03:39:28.043Z,99.99
2017-12-27T03:40:28.058Z,99.99
2017-12-27T03:41:28.092Z,99.99
2017-12-27T03:42:28.517Z,99.99
2017-12-27T03:43:28.697Z,99.99
2017-12-27T03:44:28.990Z,99.99
2017-12-27T03:45:29.008Z,99.99
2017-12-27T03:46:29.037Z,99.99
2017-12-27T03:47:29.093Z,99.99
2017-12-27T03:48:29.098Z,99.99
2017-12-27T03:49:29.394Z,99.99
2017-12-27T03:50:29.138Z,99.99
2017-12-27T03:51:29.435Z,99.99
2017-12-27T03:52:29.969Z,99.99
2017-12-27T03:53:29.663Z,99.99
2017-12-27T03:54:29.992Z,99.99
2017-12-27T03:55:30.165Z,99.99
2017-12-27T03:56:30.378Z,99.99
2017-12-27T03:57:30.737Z,99.99
2017-12-27T03:58:30.900Z,99.99
2017-12-27T03:59:31.230Z,99.99
2017-12-27T04:00:31.109Z,99.99
2017-12-27T04:01:31.103Z,99.99
2017-12-27T04:02:31.020Z,99.99
2017-12-27T04:03:31.376Z,99.99
2017-12-27T04:04:31.386Z,99.99
2017-12-27T04:05:31.437Z,99.99
2017-12-27T04:06:31.470Z,99.99
2017-12-27T04:07:32.219Z,99.99
2017-12-27T04:08:32.339Z,99.99
2017-12-27T04:09:32.556Z,99.99
2017-12-27T04:10:32.009Z,99.99
2017-12-27T04:11:32.107Z,99.99
2017-12-27T04:12:32.202Z,99.99
2017-12-27T04:13:32.024Z,99.99
2017-12-27T04:14:32.361Z,99.99
2017-12-27T04:15:32.291Z,99.99
2017-12-27T04:16:32.316Z,99.99
2017-12-27T04:17:31.997Z,99.99
2017-12-27T04:18:32.810Z,99.99
2017-12-27T04:19:32.782Z,99.99
2017-12-27T04:20:32.667Z,99.99
2017-12-27T04:21:33.112Z,99.99
2017-12-27T04:22:32.864Z,99.99
2017-12-27T04:23:33.288Z,99.99
2017-12-27T04:24:33.739Z,99.99
2017-12-27T04:25:33.494Z,99.99
2017-12-27T04:26:33.803Z,99.99
2017-12-27T04:27:33.810Z,99.99
2017-12-27T04:28:33.996Z,99.99
2017-12-27T04:29:34.440Z,99.99
2017-12-27T04:30:34.607Z,99.99
2017-12-27T04:31:35.365Z,99.99
2017-12-27T04:32:34.812Z,99.99
2017-12-27T04:33:35.243Z,99.99
2017-12-27T04:34:35.563Z,99.99
2017-12-27T04:35:35.754Z,99.99
2017-12-27T04:36:36.031Z,99.99
2017-12-27T04:37:36.439Z,99.99
2017-12-27T04:38:36.754Z,99.99
2017-12-27T04:39:36.780Z,99.99
2017-12-27T04:40:36.727Z,99.99
2017-12-27T04:41:37.473Z,99.99
2017-12-27T04:42:36.563Z,99.99
2017-12-27T04:43:36.497Z,99.99
2017-12-27T04:44:38.190Z,99.99
2017-12-27T04:45:37.297Z,99.99
2017-12-27T04:46:37.945Z,99.99
2017-12-27T04:47:37.871Z,99.99
2017-12-27T04:48:38.332Z,99.99
2017-12-27T04:49:38.097Z,99.99
2017-12-27T04:50:38.541Z,99.99
2017-12-27T04:51:38.289Z,99.99
2017-12-27T04:52:39.019Z,99.99
2017-12-27T04:53:39.023Z,99.99
2017-12-27T04:54:39.190Z,99.99
2017-12-27T04:55:39.477Z,99.99
2017-12-27T04:56:39.833Z,99.99
2017-12-27T04:57:39.732Z,99.99
2017-12-27T04:58:39.998Z,99.99
2017-12-27T04:59:40.022Z,99.99
2017-12-27T05:00:40.544Z,99.99
2017-12-27T05:01:40.520Z,99.99
2017-12-27T05:02:40.275Z,99.99
2017-12-27T05:03:40.574Z,99.99
2017-12-27T05:04:41.078Z,99.99
2017-12-27T05:05:40.807Z,99.99
2017-12-27T05:06:40.637Z,99.99
2017-12-27T05:07:40.687Z,99.99
2017-12-27T05:08:40.668Z,99.99
2017-12-27T05:09:40.816Z,99.99
2017-12-27T05:10:40.841Z,99.99
2017-12-27T05:11:41.174Z,99.99
2017-12-27T05:12:41.377Z,99.99
2017-12-27T05:13:41.401Z,99.99
2017-12-27T05:14:41.608Z,99.99
2017-12-27T05:15:41.644Z,99.99
2017-12-27T05:16:41.532Z,99.99
2017-12-27T05:17:41.713Z,99.99
2017-12-27T05:18:42.289Z,99.99
2017-12-27T05:19:42.295Z,99.99
2017-12-27T05:20:42.711Z,99.99
2017-12-27T05:21:42.673Z,99.99
2017-12-27T05:22:42.589Z,99.99
2017-12-27T05:23:43.276Z,99.99
2017-12-27T05:24:43.062Z,99.99
2017-12-27T05:25:43.078Z,99.99
2017-12-27T05:26:43.256Z,99.99
2017-12-27T05:27:43.273Z,99.99
2017-12-27T05:28:43.445Z,99.99
2017-12-27T05:29:43.459Z,99.99
2017-12-27T05:30:43.650Z,99.99
2017-12-27T05:31:44.362Z,99.99
2017-12-27T05:32:44.258Z,99.99
2017-12-27T05:33:44.959Z,99.99
2017-12-27T05:34:44.975Z,99.99
2017-12-27T05:35:44.924Z,99.99
2017-12-27T05:36:45.204Z,99.99
2017-12-27T05:37:45.207Z,99.99
2017-12-27T05:38:45.236Z,99.99
2017-12-27T05:39:45.673Z,99.99
2017-12-27T05:40:46.113Z,99.99
2017-12-27T05:41:45.861Z,99.99
2017-12-27T05:42:46.586Z,99.99
2017-12-27T05:43:47.003Z,99.99
2017-12-27T05:44:47.103Z,99.99
2017-12-27T05:45:47.093Z,99.99
2017-12-27T05:46:47.172Z,99.99
2017-12-27T05:47:47.133Z,99.99
2017-12-27T05:48:47.061Z,99.99
2017-12-27T05:49:47.549Z,99.99
2017-12-27T05:50:48.005Z,99.99
2017-12-27T05:51:47.988Z,99.99
2017-12-27T05:52:48.442Z,99.99
2017-12-27T05:53:48.192Z,99.99
2017-12-27T05:54:48.348Z,99.99
2017-12-27T05:55:49.068Z,99.99
2017-12-27T05:56:48.814Z,99.99
2017-12-27T05:57:49.241Z,99.99
2017-12-27T05:58:49.685Z,99.99
2017-12-27T05:59:49.717Z,99.99
2017-12-27T06:00:50.155Z,99.99
2017-12-27T06:01:50.154Z,99.99
2017-12-27T06:02:50.173Z,99.99
2017-12-27T06:03:50.196Z,99.99
2017-12-27T06:04:50.071Z,99.99
2017-12-27T06:05:50.669Z,99.99
2017-12-27T06:06:50.388Z,99.99
2017-12-27T06:07:51.074Z,99.99
2017-12-27T06:08:51.525Z,99.99
2017-12-27T06:09:51.541Z,99.99
2017-12-27T06:10:51.338Z,99.99
2017-12-27T06:11:51.620Z,99.99
2017-12-27T06:12:51.411Z,99.99
2017-12-27T06:13:51.667Z,99.99
2017-12-27T06:14:51.899Z,99.99
2017-12-27T06:15:52.072Z,99.99
2017-12-27T06:16:52.372Z,99.99
2017-12-27T06:17:52.650Z,99.99
2017-12-27T06:18:52.520Z,99.99
2017-12-27T06:19:52.274Z,99.99
2017-12-27T06:20:52.566Z,99.99
2017-12-27T06:21:52.633Z,99.99
2017-12-27T06:22:52.611Z,99.99
2017-12-27T06:23:53.028Z,99.99
2017-12-27T06:24:53.067Z,99.99
2017-12-27T06:25:53.055Z,99.99
2017-12-27T06:26:53.076Z,99.99
2017-12-27T06:27:53.096Z,99.99
2017-12-27T06:28:53.143Z,99.99
2017-12-27T06:29:53.143Z,99.99
2017-12-27T06:30:53.173Z,99.99
2017-12-27T06:31:53.620Z,99.99
2017-12-27T06:32:53.646Z,99.99
2017-12-27T06:33:53.678Z,99.99
2017-12-27T06:34:53.420Z,99.99
2017-12-27T06:35:53.724Z,99.99
2017-12-27T06:36:53.726Z,99.99
2017-12-27T06:37:53.753Z,99.99
2017-12-27T06:38:53.763Z,99.99
2017-12-27T06:39:53.792Z,99.99
2017-12-27T06:40:54.079Z,99.99
2017-12-27T06:41:54.176Z,99.99
2017-12-27T06:42:54.124Z,99.99
2017-12-27T06:43:54.551Z,99.99
2017-12-27T06:44:55.005Z,99.99
2017-12-27T06:45:55.153Z,99.99
2017-12-27T06:46:55.177Z,99.99
2017-12-27T06:47:55.327Z,99.99
2017-12-27T06:48:55.772Z,99.99
2017-12-27T06:49:55.805Z,99.99
2017-12-27T06:50:55.807Z,99.99
2017-12-27T06:51:55.985Z,99.99
2017-12-27T06:52:56.005Z,99.99
2017-12-27T06:53:56.020Z,99.99
2017-12-27T06:54:56.033Z,99.99
2017-12-27T06:55:56.059Z,99.99
2017-12-27T06:56:56.075Z,99.99
2017-12-27T06:57:56.248Z,99.99
2017-12-27T06:58:56.694Z,99.99
2017-12-27T06:59:57.227Z,99.99
2017-12-27T07:00:57.233Z,99.99
2017-12-27T07:01:56.970Z,99.99
2017-12-27T07:02:57.329Z,99.99
2017-12-27T07:03:57.300Z,99.99
2017-12-27T07:04:57.311Z,99.99
2017-12-27T07:05:57.090Z,99.99
2017-12-27T07:06:57.349Z,99.99
2017-12-27T07:07:57.377Z,99.99
2017-12-27T07:08:57.400Z,99.99
2017-12-27T07:09:57.529Z,99.99
2017-12-27T07:10:57.452Z,99.99
2017-12-27T07:11:57.470Z,99.99
2017-12-27T07:12:57.487Z,99.99
2017-12-27T07:13:57.503Z,99.99
2017-12-27T07:14:57.531Z,99.99
2017-12-27T07:15:57.661Z,99.99
2017-12-27T07:16:57.574Z,99.99
2017-12-27T07:17:57.754Z,99.99
2017-12-27T07:18:58.060Z,99.99
2017-12-27T07:19:58.524Z,99.99
2017-12-27T07:20:58.334Z,99.99
2017-12-27T07:21:58.562Z,99.99
2017-12-27T07:22:58.685Z,99.99
2017-12-27T07:23:58.762Z,99.99
2017-12-27T07:24:58.640Z,99.99
2017-12-27T07:25:58.642Z,99.99
2017-12-27T07:26:58.686Z,99.99
2017-12-27T07:27:58.755Z,99.99
2017-12-27T07:28:58.713Z,99.99
2017-12-27T07:29:58.734Z,99.99
2017-12-27T07:30:58.760Z,99.99
2017-12-27T07:31:59.248Z,99.99
2017-12-27T07:32:59.544Z,99.99
2017-12-27T07:33:59.337Z,99.99
2017-12-27T07:34:59.116Z,99.99
2017-12-27T07:35:59.307Z,99.99
2017-12-27T07:36:59.338Z,99.99
2017-12-27T07:37:59.364Z,99.99
2017-12-27T07:38:59.622Z,99.99
2017-12-27T07:39:59.548Z,99.99
2017-12-27T07:41:00.036Z,99.99
2017-12-27T07:42:00.361Z,99.99
2017-12-27T07:43:00.090Z,99.99
2017-12-27T07:44:00.106Z,99.99
2017-12-27T07:45:00.567Z,99.99
2017-12-27T07:46:00.145Z,99.99
2017-12-27T07:47:00.154Z,99.99
2017-12-27T07:48:00.781Z,99.99
2017-12-27T07:49:00.794Z,99.99
2017-12-27T07:50:01.323Z,99.99
2017-12-27T07:51:00.820Z,99.99
2017-12-27T07:52:00.587Z,99.99
2017-12-27T07:53:00.619Z,99.99
2017-12-27T07:54:01.635Z,99.99
2017-12-27T07:55:01.189Z,99.99
2017-12-27T07:56:01.565Z,99.99
2017-12-27T07:57:01.190Z,99.99
2017-12-27T07:58:01.165Z,99.99
2017-12-27T07:59:00.918Z,99.99
2017-12-27T08:00:00.948Z,99.99
2017-12-27T08:01:01.193Z,99.99
2017-12-27T08:02:01.632Z,99.99
2017-12-27T08:03:01.823Z,99.99
2017-12-27T08:04:02.661Z,99.99
2017-12-27T08:05:02.281Z,99.99
2017-12-27T08:06:02.319Z,99.99
2017-12-27T08:07:02.330Z,99.99
2017-12-27T08:08:02.355Z,99.99
2017-12-27T08:09:02.372Z,99.99
2017-12-27T08:10:02.386Z,99.99
2017-12-27T08:11:02.486Z,99.99
2017-12-27T08:12:02.173Z,99.99
2017-12-27T08:13:02.686Z,99.99
2017-12-27T08:14:02.423Z,99.99
2017-12-27T08:15:02.755Z,99.99
2017-12-27T08:16:02.481Z,99.99
2017-12-27T08:17:02.941Z,99.99
2017-12-27T08:18:03.043Z,99.99
2017-12-27T08:19:03.398Z,99.99
2017-12-27T08:20:03.642Z,99.99
2017-12-27T08:21:04.633Z,99.99
2017-12-27T08:22:04.415Z,99.99
2017-12-27T08:23:04.438Z,99.99
2017-12-27T08:24:04.186Z,99.99
2017-12-27T08:25:04.908Z,99.99
2017-12-27T08:26:05.363Z,99.99
2017-12-27T08:27:05.395Z,99.99
2017-12-27T08:28:05.419Z,99.99
2017-12-27T08:29:05.755Z,99.99
2017-12-27T08:30:05.903Z,99.99
2017-12-27T08:31:06.216Z,99.99
2017-12-27T08:32:05.810Z,99.99
2017-12-27T08:33:05.578Z,99.99
2017-12-27T08:34:06.314Z,99.99
2017-12-27T08:35:06.856Z,99.99
2017-12-27T08:36:06.596Z,99.99
2017-12-27T08:37:06.307Z,99.99
2017-12-27T08:38:06.786Z,99.99
2017-12-27T08:39:07.286Z,99.99
2017-12-27T08:40:07.512Z,99.99
2017-12-27T08:41:07.559Z,99.99
2017-12-27T08:42:07.663Z,99.99
2017-12-27T08:43:07.977Z,99.99
2017-12-27T08:44:07.963Z,99.99
2017-12-27T08:45:08.010Z,99.99
2017-12-27T08:46:08.204Z,99.99
2017-12-27T08:47:08.582Z,99.99
2017-12-27T08:48:08.799Z,99.99
2017-12-27T08:49:08.556Z,99.99
2017-12-27T08:50:09.833Z,99.99
2017-12-27T08:51:09.284Z,99.99
2017-12-27T08:52:09.300Z,99.99
2017-12-27T08:53:09.081Z,99.99
2017-12-27T08:54:09.419Z,99.99
2017-12-27T08:55:09.370Z,99.99
2017-12-27T08:56:09.474Z,99.99
2017-12-27T08:57:09.875Z,99.99
2017-12-27T08:58:09.515Z,99.99
2017-12-27T08:59:09.776Z,99.99
2017-12-27T09:00:10.319Z,99.99
2017-12-27T09:01:10.348Z,99.99
2017-12-27T09:02:10.774Z,99.99
2017-12-27T09:03:10.717Z,99.99
2017-12-27T09:04:10.776Z,99.99
2017-12-27T09:05:11.260Z,99.99
2017-12-27T09:06:11.418Z,99.99
2017-12-27T09:07:12.212Z,99.99
2017-12-27T09:08:12.223Z,99.99
2017-12-27T09:09:12.515Z,99.99
2017-12-27T09:10:12.255Z,99.99
2017-12-27T09:11:12.490Z,99.99
2017-12-27T09:12:12.738Z,99.99
2017-12-27T09:13:12.760Z,99.99
2017-12-27T09:14:12.978Z,99.99
2017-12-27T09:15:12.681Z,99.99
2017-12-27T09:16:13.004Z,99.99
2017-12-27T09:17:13.322Z,99.99
2017-12-27T09:18:13.315Z,99.99
2017-12-27T09:19:13.404Z,99.99
2017-12-27T09:20:13.496Z,99.99
2017-12-27T09:21:13.230Z,99.99
2017-12-27T09:22:13.256Z,99.99
2017-12-27T09:23:13.966Z,99.99
2017-12-27T09:24:13.946Z,99.99
2017-12-27T09:25:14.760Z,99.99
2017-12-27T09:26:14.822Z,99.99
2017-12-27T09:27:14.808Z,99.99
2017-12-27T09:28:14.895Z,99.99
2017-12-27T09:29:14.583Z,99.99
2017-12-27T09:30:15.012Z,99.99
2017-12-27T09:31:15.462Z,99.99
2017-12-27T09:32:15.937Z,99.99
2017-12-27T09:33:15.816Z,99.99
2017-12-27T09:34:16.323Z,99.99
2017-12-27T09:35:16.238Z,99.99
2017-12-27T09:36:16.166Z,99.99
2017-12-27T09:37:16.527Z,99.92
2017-12-27T09:38:16.286Z,99.07
2017-12-27T09:39:16.590Z,99.07
2017-12-27T09:40:16.642Z,98.88
2017-12-27T09:41:16.632Z,98.74
2017-12-27T09:42:16.680Z,98.55
2017-12-27T09:43:16.737Z,95.98
2017-12-27T09:44:17.032Z,95.03
2017-12-27T09:45:17.205Z,94.08
2017-12-27T09:46:17.158Z,94.65
2017-12-27T09:47:17.455Z,93.99
2017-12-27T09:48:17.751Z,94.27
2017-12-27T09:49:18.148Z,95.12
2017-12-27T09:50:18.208Z,94.27
2017-12-27T09:51:18.111Z,93.7
2017-12-27T09:52:18.136Z,94.37
2017-12-27T09:53:18.180Z,93.89
2017-12-27T09:54:18.229Z,93.6
2017-12-27T09:55:18.246Z,93.89
2017-12-27T09:56:18.570Z,93.13
2017-12-27T09:57:18.554Z,92.56
2017-12-27T09:58:18.722Z,92.37
2017-12-27T09:59:19.453Z,92.56
2017-12-27T10:00:19.488Z,92.56
2017-12-27T10:01:19.569Z,92.94
2017-12-27T10:02:18.725Z,93.65
2017-12-27T10:03:18.447Z,94.79
2017-12-27T10:04:18.648Z,95.36
2017-12-27T10:05:18.686Z,96.17
2017-12-27T10:06:19.418Z,97.12
2017-12-27T10:07:19.162Z,97.6
2017-12-27T10:08:19.616Z,97.78
2017-12-27T10:09:19.784Z,98.49
2017-12-27T10:10:19.642Z,98.87
2017-12-27T10:11:19.684Z,99.16
2017-12-27T10:12:19.976Z,99.44
2017-12-27T10:13:20.215Z,98.97
2017-12-27T10:14:20.350Z,99.82
2017-12-27T10:15:20.235Z,99.82
2017-12-27T10:16:20.034Z,99.99
2017-12-27T10:17:20.310Z,99.99
2017-12-27T10:18:20.313Z,99.99
2017-12-27T10:19:20.518Z,99.91
2017-12-27T10:20:20.512Z,99.99
2017-12-27T10:21:20.440Z,99.99
2017-12-27T10:22:20.756Z,99.99
2017-12-27T10:23:21.144Z,99.99
2017-12-27T10:24:21.052Z,99.99
2017-12-27T10:25:20.851Z,99.99
2017-12-27T10:26:20.892Z,99.99
2017-12-27T10:27:21.391Z,99.99
2017-12-27T10:28:21.062Z,99.99
2017-12-27T10:29:21.272Z,99.99
2017-12-27T10:30:20.813Z,99.99
2017-12-27T10:31:20.811Z,99.99
2017-12-27T10:32:21.093Z,99.99
2017-12-27T10:33:21.307Z,99.99
2017-12-27T10:34:21.013Z,99.99
2017-12-27T10:35:21.301Z,99.99
2017-12-27T10:36:35.907Z,99.99
2017-12-27T10:37:21.348Z,99.99
2017-12-27T10:38:21.426Z,99.99
2017-12-27T10:39:21.697Z,99.99
2017-12-27T10:40:21.459Z,99.99
2017-12-27T10:41:21.801Z,99.99
2017-12-27T10:42:22.200Z,99.99
2017-12-27T10:43:21.763Z,99.99
2017-12-27T10:44:22.453Z,99.99
2017-12-27T10:45:21.985Z,99.99
2017-12-27T10:46:22.505Z,99.99
2017-12-27T10:47:22.565Z,99.99
2017-12-27T10:48:22.268Z,99.99
2017-12-27T10:49:22.499Z,99.99
2017-12-27T10:50:22.828Z,99.99
2017-12-27T10:51:22.573Z,99.99
2017-12-27T10:52:22.760Z,99.99
2017-12-27T10:53:23.051Z,99.99
2017-12-27T10:54:23.901Z,99.44
2017-12-27T10:55:23.980Z,99.77
2017-12-27T10:56:23.974Z,99.21
2017-12-27T10:57:24.415Z,99.11
2017-12-27T10:58:24.440Z,99.11
2017-12-27T10:59:24.466Z,98.92
2017-12-27T11:00:26.093Z,99.11
2017-12-27T11:01:26.340Z,99.02
2017-12-27T11:02:25.370Z,98.87
2017-12-27T11:03:25.817Z,99.63
2017-12-27T11:04:26.294Z,99.99
2017-12-27T11:05:26.050Z,99.99
2017-12-27T11:06:26.346Z,99.99
2017-12-27T11:07:26.361Z,99.99
2017-12-27T11:08:26.399Z,99.99
2017-12-27T11:09:26.157Z,99.99
2017-12-27T11:10:27.115Z,99.99
2017-12-27T11:11:27.121Z,99.99
2017-12-27T11:12:26.766Z,99.99
2017-12-27T11:13:27.294Z,99.99
2017-12-27T11:14:27.767Z,99.99
2017-12-27T11:15:27.983Z,99.99
2017-12-27T11:16:28.339Z,99.99
2017-12-27T11:17:28.045Z,99.99
2017-12-27T11:18:28.316Z,99.99
2017-12-27T11:19:28.501Z,99.99
2017-12-27T11:20:28.663Z,99.99
2017-12-27T11:21:28.570Z,99.99
2017-12-27T11:22:28.527Z,99.99
2017-12-27T11:23:28.962Z,99.99
2017-12-27T11:24:29.004Z,99.99
2017-12-27T11:25:29.259Z,99.99
2017-12-27T11:26:29.006Z,99.99
2017-12-27T11:27:29.462Z,99.99
2017-12-27T11:28:29.562Z,99.99
2017-12-27T11:29:30.239Z,99.99
2017-12-27T11:30:29.330Z,99.99
2017-12-27T11:31:29.680Z,99.99
2017-12-27T11:32:29.784Z,99.99
2017-12-27T11:33:29.392Z,99.99
2017-12-27T11:34:30.158Z,99.99
2017-12-27T11:35:30.303Z,99.99
2017-12-27T11:36:30.174Z,99.99
2017-12-27T11:37:30.205Z,99.99
2017-12-27T11:38:30.339Z,99.99
2017-12-27T11:39:30.330Z,99.99
2017-12-27T11:40:35.310Z,99.99
2017-12-27T11:41:34.913Z,99.99
2017-12-27T11:42:35.209Z,99.99
2017-12-27T11:43:34.929Z,99.99
2017-12-27T11:44:34.994Z,99.99
2017-12-27T11:45:35.198Z,99.99
2017-12-27T11:46:35.456Z,99.99
2017-12-27T11:47:35.753Z,99.99
2017-12-27T11:48:35.781Z,99.99
2017-12-27T11:49:35.521Z,99.99
2017-12-27T11:50:35.746Z,99.99
2017-12-27T11:51:36.232Z,99.99
2017-12-27T11:52:36.224Z,99.99
2017-12-27T11:53:35.972Z,99.99
2017-12-27T11:54:36.285Z,99.99
2017-12-27T11:55:36.468Z,99.99
2017-12-27T11:56:36.561Z,99.99
2017-12-27T11:57:36.515Z,99.99
2017-12-27T11:58:36.270Z,99.99
2017-12-27T11:59:36.575Z,99.99
2017-12-27T12:00:36.358Z,99.99
2017-12-27T12:01:36.599Z,99.99
2017-12-27T12:02:37.068Z,99.99
2017-12-27T12:03:37.079Z,99.99
2017-12-27T12:04:37.122Z,99.99
2017-12-27T12:05:36.948Z,99.99
2017-12-27T12:06:37.326Z,99.99
2017-12-27T12:07:37.915Z,99.99
2017-12-27T12:08:37.755Z,99.99
2017-12-27T12:09:37.765Z,99.99
2017-12-27T12:10:38.649Z,99.99
2017-12-27T12:11:38.573Z,99.99
2017-12-27T12:12:39.337Z,99.99
2017-12-27T12:13:39.822Z,99.99
2017-12-27T12:14:39.555Z,99.99
2017-12-27T12:15:39.394Z,99.99
2017-12-27T12:16:39.390Z,99.99
2017-12-27T12:17:39.163Z,99.99
2017-12-27T12:18:39.588Z,99.99
2017-12-27T12:19:39.616Z,99.99
2017-12-27T12:20:39.936Z,99.99
2017-12-27T12:21:40.046Z,99.99
2017-12-27T12:22:40.581Z,99.99
2017-12-27T12:23:39.711Z,99.99
2017-12-27T12:24:40.100Z,99.99
2017-12-27T12:25:39.797Z,99.99
2017-12-27T12:26:40.159Z,99.99
2017-12-27T12:27:40.126Z,99.99
2017-12-27T12:28:39.880Z,99.99
2017-12-27T12:29:40.761Z,99.99
2017-12-27T12:30:40.971Z,99.99
2017-12-27T12:31:41.165Z,99.99
2017-12-27T12:32:41.351Z,99.99
2017-12-27T12:33:41.793Z,99.99
2017-12-27T12:34:42.270Z,99.99
2017-12-27T12:35:42.452Z,99.99
2017-12-27T12:36:42.949Z,99.99
2017-12-27T12:37:42.972Z,99.99
2017-12-27T12:38:43.358Z,99.99
2017-12-27T12:39:43.377Z,99.99
2017-12-27T12:40:43.902Z,99.99
2017-12-27T12:41:43.947Z,99.99
2017-12-27T12:42:43.705Z,99.99
2017-12-27T12:43:43.696Z,99.99
2017-12-27T12:44:43.874Z,99.99
2017-12-27T12:45:44.456Z,99.99
2017-12-27T12:46:44.488Z,99.99
2017-12-27T12:47:44.280Z,99.99
2017-12-27T12:48:44.532Z,99.99
2017-12-27T12:49:44.724Z,99.99
2017-12-27T12:50:45.449Z,99.99
2017-12-27T12:51:45.548Z,99.99
2017-12-27T12:52:45.210Z,99.99
2017-12-27T12:53:45.228Z,99.99
2017-12-27T12:54:45.576Z,99.99
2017-12-27T12:55:45.756Z,99.99